sensor_id;sensor_type;location;lat;lon;timestamp;P1;durP1;ratioP1;P2;durP2;ratioP2
21274;SDS011;36472;52.170;20.884;2023-08-12T00:02:06;13.43;;;7.55;;
21274;SDS011;36472;52.170;20.884;2023-08-12T00:04:35;11.35;;;7.55;;
21274;SDS011;36472;52.170;20.884;2023-08-12T00:07:04;10.50;;;7.40;;
21274;SDS011;36472;52.170;20.884;2023-08-12T00:09:33;12.32;;;7.90;;
21274;SDS011;36472;52.170;20.884;2023-08-12T00:12:02;10.63;;;7.68;;
21274;SDS011;36472;52.170;20.884;2023-08-12T00:14:32;9.90;;;6.95;;
21274;SDS011;36472;52.170;20.884;2023-08-12T00:17:00;10.65;;;6.88;;
21274;SDS011;36472;52.170;20.884;2023-08-12T00:19:32;10.63;;;6.90;;
21274;SDS011;36472;52.170;20.884;2023-08-12T00:22:00;9.85;;;7.07;;
21274;SDS011;36472;52.170;20.884;2023-08-12T00:24:31;9.13;;;6.95;;
21274;SDS011;36472;52.170;20.884;2023-08-12T00:27:00;11.50;;;7.22;;
21274;SDS011;36472;52.170;20.884;2023-08-12T00:29:29;9.02;;;6.50;;
21274;SDS011;36472;52.170;20.884;2023-08-12T00:31:58;8.05;;;6.00;;
21274;SDS011;36472;52.170;20.884;2023-08-12T00:34:27;9.32;;;6.55;;
21274;SDS011;36472;52.170;20.884;2023-08-12T00:36:58;10.73;;;6.75;;
21274;SDS011;36472;52.170;20.884;2023-08-12T00:39:27;11.57;;;6.43;;
21274;SDS011;36472;52.170;20.884;2023-08-12T00:41:56;10.27;;;6.65;;
21274;SDS011;36472;52.170;20.884;2023-08-12T00:44:25;9.88;;;6.47;;
21274;SDS011;36472;52.170;20.884;2023-08-12T00:46:54;9.30;;;6.25;;
21274;SDS011;36472;52.170;20.884;2023-08-12T00:49:25;10.00;;;6.50;;
21274;SDS011;36472;52.170;20.884;2023-08-12T00:51:56;12.02;;;5.88;;
21274;SDS011;36472;52.170;20.884;2023-08-12T00:54:26;8.45;;;5.20;;
21274;SDS011;36472;52.170;20.884;2023-08-12T00:56:57;14.57;;;6.18;;
21274;SDS011;36472;52.170;20.884;2023-08-12T00:59:27;10.68;;;6.60;;
21274;SDS011;36472;52.170;20.884;2023-08-12T01:01:56;10.20;;;6.15;;
21274;SDS011;36472;52.170;20.884;2023-08-12T01:04:26;11.18;;;6.68;;
21274;SDS011;36472;52.170;20.884;2023-08-12T01:06:55;14.00;;;6.47;;
21274;SDS011;36472;52.170;20.884;2023-08-12T01:09:27;7.65;;;5.68;;
21274;SDS011;36472;52.170;20.884;2023-08-12T01:11:57;9.45;;;6.15;;
21274;SDS011;36472;52.170;20.884;2023-08-12T01:14:35;8.65;;;6.20;;
21274;SDS011;36472;52.170;20.884;2023-08-12T01:17:24;7.07;;;5.68;;
21274;SDS011;36472;52.170;20.884;2023-08-12T01:19:57;9.32;;;6.13;;
21274;SDS011;36472;52.170;20.884;2023-08-12T01:22:31;13.68;;;7.07;;
21274;SDS011;36472;52.170;20.884;2023-08-12T01:25:05;13.30;;;7.05;;
21274;SDS011;36472;52.170;20.884;2023-08-12T01:27:35;11.98;;;6.45;;
21274;SDS011;36472;52.170;20.884;2023-08-12T01:30:05;14.30;;;7.15;;
21274;SDS011;36472;52.170;20.884;2023-08-12T01:32:40;10.13;;;6.82;;
21274;SDS011;36472;52.170;20.884;2023-08-12T01:35:17;13.32;;;6.85;;
21274;SDS011;36472;52.170;20.884;2023-08-12T01:37:52;13.18;;;6.97;;
21274;SDS011;36472;52.170;20.884;2023-08-12T01:40:25;10.73;;;6.43;;
21274;SDS011;36472;52.170;20.884;2023-08-12T01:42:59;13.80;;;7.57;;
21274;SDS011;36472;52.170;20.884;2023-08-12T01:45:30;13.27;;;6.78;;
21274;SDS011;36472;52.170;20.884;2023-08-12T01:48:01;9.90;;;6.63;;
21274;SDS011;36472;52.170;20.884;2023-08-12T01:50:31;15.25;;;6.95;;
21274;SDS011;36472;52.170;20.884;2023-08-12T01:53:00;12.48;;;7.70;;
21274;SDS011;36472;52.170;20.884;2023-08-12T01:55:31;14.70;;;7.22;;
21274;SDS011;36472;52.170;20.884;2023-08-12T01:57:59;14.82;;;6.82;;
21274;SDS011;36472;52.170;20.884;2023-08-12T02:00:29;13.55;;;8.00;;
21274;SDS011;36472;52.170;20.884;2023-08-12T02:02:58;11.25;;;7.20;;
21274;SDS011;36472;52.170;20.884;2023-08-12T02:05:28;12.00;;;7.22;;
21274;SDS011;36472;52.170;20.884;2023-08-12T02:07:56;13.43;;;7.22;;
21274;SDS011;36472;52.170;20.884;2023-08-12T02:10:26;14.70;;;7.57;;
21274;SDS011;36472;52.170;20.884;2023-08-12T02:12:56;13.30;;;7.70;;
21274;SDS011;36472;52.170;20.884;2023-08-12T02:15:25;12.60;;;7.05;;
21274;SDS011;36472;52.170;20.884;2023-08-12T02:17:54;11.90;;;6.90;;
21274;SDS011;36472;52.170;20.884;2023-08-12T02:20:23;11.60;;;7.47;;
21274;SDS011;36472;52.170;20.884;2023-08-12T02:22:52;10.40;;;6.40;;
21274;SDS011;36472;52.170;20.884;2023-08-12T02:25:21;11.05;;;6.95;;
21274;SDS011;36472;52.170;20.884;2023-08-12T02:27:50;12.23;;;6.80;;
21274;SDS011;36472;52.170;20.884;2023-08-12T02:30:20;13.50;;;7.22;;
21274;SDS011;36472;52.170;20.884;2023-08-12T02:32:49;11.98;;;7.43;;
21274;SDS011;36472;52.170;20.884;2023-08-12T02:35:19;12.68;;;7.20;;
21274;SDS011;36472;52.170;20.884;2023-08-12T02:37:48;12.00;;;7.65;;
21274;SDS011;36472;52.170;20.884;2023-08-12T02:40:17;12.27;;;8.00;;
21274;SDS011;36472;52.170;20.884;2023-08-12T02:42:46;10.05;;;7.20;;
21274;SDS011;36472;52.170;20.884;2023-08-12T02:45:18;11.70;;;7.32;;
21274;SDS011;36472;52.170;20.884;2023-08-12T02:47:48;12.43;;;7.72;;
21274;SDS011;36472;52.170;20.884;2023-08-12T02:50:17;10.00;;;7.13;;
21274;SDS011;36472;52.170;20.884;2023-08-12T02:52:46;10.55;;;7.88;;
21274;SDS011;36472;52.170;20.884;2023-08-12T02:55:15;12.43;;;7.40;;
21274;SDS011;36472;52.170;20.884;2023-08-12T02:57:44;12.20;;;7.47;;
21274;SDS011;36472;52.170;20.884;2023-08-12T03:00:14;12.48;;;7.82;;
21274;SDS011;36472;52.170;20.884;2023-08-12T03:02:44;9.65;;;6.68;;
21274;SDS011;36472;52.170;20.884;2023-08-12T03:05:14;11.32;;;7.07;;
21274;SDS011;36472;52.170;20.884;2023-08-12T03:07:44;17.63;;;7.40;;
21274;SDS011;36472;52.170;20.884;2023-08-12T03:10:13;10.80;;;6.85;;
21274;SDS011;36472;52.170;20.884;2023-08-12T03:12:42;14.20;;;7.72;;
21274;SDS011;36472;52.170;20.884;2023-08-12T03:15:11;9.25;;;7.05;;
21274;SDS011;36472;52.170;20.884;2023-08-12T03:17:40;12.48;;;7.57;;
21274;SDS011;36472;52.170;20.884;2023-08-12T03:20:10;11.95;;;7.47;;
21274;SDS011;36472;52.170;20.884;2023-08-12T03:22:42;9.93;;;7.40;;
21274;SDS011;36472;52.170;20.884;2023-08-12T03:25:11;10.80;;;7.38;;
21274;SDS011;36472;52.170;20.884;2023-08-12T03:27:43;11.52;;;8.02;;
21274;SDS011;36472;52.170;20.884;2023-08-12T03:30:12;12.00;;;7.40;;
21274;SDS011;36472;52.170;20.884;2023-08-12T03:32:43;10.60;;;7.43;;
21274;SDS011;36472;52.170;20.884;2023-08-12T03:35:13;10.85;;;7.10;;
21274;SDS011;36472;52.170;20.884;2023-08-12T03:37:47;10.90;;;7.25;;
21274;SDS011;36472;52.170;20.884;2023-08-12T03:40:18;9.40;;;7.00;;
21274;SDS011;36472;52.170;20.884;2023-08-12T03:42:48;9.65;;;7.03;;
21274;SDS011;36472;52.170;20.884;2023-08-12T03:45:21;10.38;;;6.30;;
21274;SDS011;36472;52.170;20.884;2023-08-12T03:47:50;8.65;;;6.40;;
21274;SDS011;36472;52.170;20.884;2023-08-12T03:50:20;10.60;;;7.40;;
21274;SDS011;36472;52.170;20.884;2023-08-12T03:52:51;8.90;;;6.40;;
21274;SDS011;36472;52.170;20.884;2023-08-12T03:55:20;11.77;;;6.78;;
21274;SDS011;36472;52.170;20.884;2023-08-12T03:57:49;12.82;;;7.07;;
21274;SDS011;36472;52.170;20.884;2023-08-12T04:00:20;10.38;;;6.70;;
21274;SDS011;36472;52.170;20.884;2023-08-12T04:02:53;9.40;;;7.00;;
21274;SDS011;36472;52.170;20.884;2023-08-12T04:05:22;11.90;;;6.65;;
21274;SDS011;36472;52.170;20.884;2023-08-12T04:07:53;10.40;;;7.03;;
21274;SDS011;36472;52.170;20.884;2023-08-12T04:10:23;9.25;;;6.78;;
21274;SDS011;36472;52.170;20.884;2023-08-12T04:12:52;9.55;;;6.95;;
21274;SDS011;36472;52.170;20.884;2023-08-12T04:15:22;9.43;;;7.07;;
21274;SDS011;36472;52.170;20.884;2023-08-12T04:17:51;10.68;;;6.97;;
21274;SDS011;36472;52.170;20.884;2023-08-12T04:20:20;10.82;;;7.28;;
21274;SDS011;36472;52.170;20.884;2023-08-12T04:22:49;12.07;;;7.13;;
21274;SDS011;36472;52.170;20.884;2023-08-12T04:25:19;8.88;;;6.82;;
21274;SDS011;36472;52.170;20.884;2023-08-12T04:27:50;10.15;;;7.30;;
21274;SDS011;36472;52.170;20.884;2023-08-12T04:30:20;10.40;;;7.75;;
21274;SDS011;36472;52.170;20.884;2023-08-12T04:32:49;10.93;;;7.28;;
21274;SDS011;36472;52.170;20.884;2023-08-12T04:39:51;10.85;;;6.97;;
21274;SDS011;36472;52.170;20.884;2023-08-12T04:42:22;12.98;;;6.93;;
21274;SDS011;36472;52.170;20.884;2023-08-12T04:44:51;10.98;;;6.47;;
21274;SDS011;36472;52.170;20.884;2023-08-12T04:47:20;10.07;;;6.07;;
21274;SDS011;36472;52.170;20.884;2023-08-12T04:49:51;11.43;;;6.93;;
21274;SDS011;36472;52.170;20.884;2023-08-12T04:52:20;10.55;;;7.55;;
21274;SDS011;36472;52.170;20.884;2023-08-12T04:54:52;15.10;;;7.20;;
21274;SDS011;36472;52.170;20.884;2023-08-12T04:57:25;11.43;;;7.53;;
21274;SDS011;36472;52.170;20.884;2023-08-12T04:59:54;11.63;;;8.15;;
21274;SDS011;36472;52.170;20.884;2023-08-12T05:02:24;11.73;;;7.97;;
21274;SDS011;36472;52.170;20.884;2023-08-12T05:04:54;13.98;;;7.95;;
21274;SDS011;36472;52.170;20.884;2023-08-12T05:07:23;9.50;;;7.25;;
21274;SDS011;36472;52.170;20.884;2023-08-12T05:09:53;21.15;;;8.70;;
21274;SDS011;36472;52.170;20.884;2023-08-12T05:12:25;11.85;;;8.25;;
21274;SDS011;36472;52.170;20.884;2023-08-12T05:14:54;14.82;;;8.80;;
21274;SDS011;36472;52.170;20.884;2023-08-12T05:17:23;14.32;;;10.45;;
21274;SDS011;36472;52.170;20.884;2023-08-12T05:19:53;13.30;;;9.77;;
21274;SDS011;36472;52.170;20.884;2023-08-12T05:22:22;13.57;;;9.35;;
21274;SDS011;36472;52.170;20.884;2023-08-12T05:24:51;15.98;;;10.13;;
21274;SDS011;36472;52.170;20.884;2023-08-12T05:27:20;12.90;;;8.57;;
21274;SDS011;36472;52.170;20.884;2023-08-12T05:29:51;13.73;;;8.60;;
21274;SDS011;36472;52.170;20.884;2023-08-12T05:32:20;12.73;;;8.38;;
21274;SDS011;36472;52.170;20.884;2023-08-12T05:34:49;13.48;;;7.88;;
21274;SDS011;36472;52.170;20.884;2023-08-12T05:37:20;16.00;;;8.63;;
21274;SDS011;36472;52.170;20.884;2023-08-12T05:39:49;10.02;;;6.60;;
21274;SDS011;36472;52.170;20.884;2023-08-12T05:42:17;11.00;;;6.78;;
21274;SDS011;36472;52.170;20.884;2023-08-12T05:44:46;11.65;;;7.03;;
21274;SDS011;36472;52.170;20.884;2023-08-12T05:47:17;10.98;;;7.03;;
21274;SDS011;36472;52.170;20.884;2023-08-12T05:49:46;7.40;;;6.47;;
21274;SDS011;36472;52.170;20.884;2023-08-12T05:52:15;11.00;;;6.60;;
21274;SDS011;36472;52.170;20.884;2023-08-12T05:54:44;10.82;;;6.03;;
21274;SDS011;36472;52.170;20.884;2023-08-12T05:57:12;13.57;;;5.72;;
21274;SDS011;36472;52.170;20.884;2023-08-12T05:59:41;11.02;;;5.18;;
21274;SDS011;36472;52.170;20.884;2023-08-12T06:02:10;10.50;;;5.05;;
21274;SDS011;36472;52.170;20.884;2023-08-12T06:04:41;11.75;;;5.03;;
21274;SDS011;36472;52.170;20.884;2023-08-12T06:07:10;8.45;;;5.10;;
21274;SDS011;36472;52.170;20.884;2023-08-12T06:09:39;9.40;;;5.05;;
21274;SDS011;36472;52.170;20.884;2023-08-12T06:12:08;7.18;;;4.90;;
21274;SDS011;36472;52.170;20.884;2023-08-12T06:14:38;9.48;;;5.57;;
21274;SDS011;36472;52.170;20.884;2023-08-12T06:17:06;6.80;;;4.57;;
21274;SDS011;36472;52.170;20.884;2023-08-12T06:19:35;14.02;;;7.13;;
21274;SDS011;36472;52.170;20.884;2023-08-12T06:22:06;9.10;;;5.68;;
21274;SDS011;36472;52.170;20.884;2023-08-12T06:24:35;8.65;;;6.22;;
21274;SDS011;36472;52.170;20.884;2023-08-12T06:27:04;8.85;;;5.03;;
21274;SDS011;36472;52.170;20.884;2023-08-12T06:29:33;12.25;;;6.20;;
21274;SDS011;36472;52.170;20.884;2023-08-12T06:32:02;8.45;;;5.60;;
21274;SDS011;36472;52.170;20.884;2023-08-12T06:34:31;8.98;;;5.35;;
21274;SDS011;36472;52.170;20.884;2023-08-12T06:37:00;10.70;;;5.35;;
21274;SDS011;36472;52.170;20.884;2023-08-12T06:39:31;10.15;;;5.55;;
21274;SDS011;36472;52.170;20.884;2023-08-12T06:41:59;9.05;;;5.22;;
21274;SDS011;36472;52.170;20.884;2023-08-12T06:44:29;10.20;;;4.72;;
21274;SDS011;36472;52.170;20.884;2023-08-12T06:46:58;6.60;;;4.75;;
21274;SDS011;36472;52.170;20.884;2023-08-12T06:49:27;7.78;;;4.18;;
21274;SDS011;36472;52.170;20.884;2023-08-12T06:51:56;7.03;;;4.25;;
21274;SDS011;36472;52.170;20.884;2023-08-12T06:54:25;9.25;;;3.78;;
21274;SDS011;36472;52.170;20.884;2023-08-12T06:56:55;9.63;;;4.22;;
21274;SDS011;36472;52.170;20.884;2023-08-12T06:59:25;8.27;;;4.10;;
21274;SDS011;36472;52.170;20.884;2023-08-12T07:01:53;7.25;;;4.00;;
21274;SDS011;36472;52.170;20.884;2023-08-12T07:04:23;6.95;;;4.05;;
21274;SDS011;36472;52.170;20.884;2023-08-12T07:06:53;6.65;;;4.00;;
21274;SDS011;36472;52.170;20.884;2023-08-12T07:09:22;9.73;;;3.97;;
21274;SDS011;36472;52.170;20.884;2023-08-12T07:11:50;7.50;;;4.20;;
21274;SDS011;36472;52.170;20.884;2023-08-12T07:14:21;3.90;;;3.17;;
21274;SDS011;36472;52.170;20.884;2023-08-12T07:16:50;5.10;;;4.03;;
21274;SDS011;36472;52.170;20.884;2023-08-12T07:19:19;5.90;;;3.50;;
21274;SDS011;36472;52.170;20.884;2023-08-12T07:21:48;5.97;;;3.17;;
21274;SDS011;36472;52.170;20.884;2023-08-12T07:24:17;9.00;;;3.38;;
21274;SDS011;36472;52.170;20.884;2023-08-12T07:26:46;6.60;;;2.80;;
21274;SDS011;36472;52.170;20.884;2023-08-12T07:29:15;7.32;;;2.63;;
21274;SDS011;36472;52.170;20.884;2023-08-12T07:31:46;3.38;;;2.05;;
21274;SDS011;36472;52.170;20.884;2023-08-12T07:34:15;6.47;;;2.90;;
21274;SDS011;36472;52.170;20.884;2023-08-12T07:36:44;5.45;;;2.78;;
21274;SDS011;36472;52.170;20.884;2023-08-12T07:39:13;5.82;;;2.83;;
21274;SDS011;36472;52.170;20.884;2023-08-12T07:41:42;4.32;;;2.75;;
21274;SDS011;36472;52.170;20.884;2023-08-12T07:44:11;6.32;;;3.03;;
21274;SDS011;36472;52.170;20.884;2023-08-12T07:46:40;4.03;;;2.40;;
21274;SDS011;36472;52.170;20.884;2023-08-12T07:49:10;4.97;;;2.40;;
21274;SDS011;36472;52.170;20.884;2023-08-12T07:51:39;7.72;;;2.33;;
21274;SDS011;36472;52.170;20.884;2023-08-12T07:54:08;7.47;;;2.35;;
21274;SDS011;36472;52.170;20.884;2023-08-12T07:56:37;5.50;;;2.53;;
21274;SDS011;36472;52.170;20.884;2023-08-12T07:59:06;3.80;;;2.13;;
21274;SDS011;36472;52.170;20.884;2023-08-12T08:01:37;5.95;;;2.10;;
21274;SDS011;36472;52.170;20.884;2023-08-12T08:04:06;6.47;;;2.30;;
21274;SDS011;36472;52.170;20.884;2023-08-12T08:06:36;3.60;;;2.00;;
21274;SDS011;36472;52.170;20.884;2023-08-12T08:09:05;4.15;;;2.38;;
21274;SDS011;36472;52.170;20.884;2023-08-12T08:11:34;3.22;;;1.95;;
21274;SDS011;36472;52.170;20.884;2023-08-12T08:14:03;2.78;;;1.90;;
21274;SDS011;36472;52.170;20.884;2023-08-12T08:16:32;3.30;;;2.00;;
21274;SDS011;36472;52.170;20.884;2023-08-12T08:19:02;6.40;;;2.30;;
21274;SDS011;36472;52.170;20.884;2023-08-12T08:21:31;5.00;;;2.03;;
21274;SDS011;36472;52.170;20.884;2023-08-12T08:24:01;3.85;;;1.80;;
21274;SDS011;36472;52.170;20.884;2023-08-12T08:26:31;3.50;;;1.83;;
21274;SDS011;36472;52.170;20.884;2023-08-12T08:29:00;6.15;;;2.08;;
21274;SDS011;36472;52.170;20.884;2023-08-12T08:31:29;4.00;;;1.60;;
21274;SDS011;36472;52.170;20.884;2023-08-12T08:33:59;3.95;;;1.60;;
21274;SDS011;36472;52.170;20.884;2023-08-12T08:36:27;4.32;;;1.75;;
21274;SDS011;36472;52.170;20.884;2023-08-12T08:38:57;3.40;;;1.73;;
21274;SDS011;36472;52.170;20.884;2023-08-12T08:41:27;1.88;;;1.40;;
21274;SDS011;36472;52.170;20.884;2023-08-12T08:44:00;2.60;;;1.50;;
21274;SDS011;36472;52.170;20.884;2023-08-12T08:46:31;3.00;;;1.70;;
21274;SDS011;36472;52.170;20.884;2023-08-12T08:49:00;4.57;;;2.10;;
21274;SDS011;36472;52.170;20.884;2023-08-12T08:51:30;3.97;;;1.90;;
21274;SDS011;36472;52.170;20.884;2023-08-12T08:54:01;3.05;;;1.40;;
21274;SDS011;36472;52.170;20.884;2023-08-12T08:56:33;3.80;;;1.80;;
21274;SDS011;36472;52.170;20.884;2023-08-12T08:59:08;3.67;;;1.77;;
21274;SDS011;36472;52.170;20.884;2023-08-12T09:01:37;4.05;;;1.45;;
21274;SDS011;36472;52.170;20.884;2023-08-12T09:04:08;6.53;;;2.00;;
21274;SDS011;36472;52.170;20.884;2023-08-12T09:06:38;2.95;;;1.80;;
21274;SDS011;36472;52.170;20.884;2023-08-12T09:09:10;2.28;;;1.75;;
21274;SDS011;36472;52.170;20.884;2023-08-12T09:11:45;4.75;;;1.63;;
21274;SDS011;36472;52.170;20.884;2023-08-12T09:14:16;4.07;;;1.90;;
21274;SDS011;36472;52.170;20.884;2023-08-12T09:16:45;4.10;;;1.60;;
21274;SDS011;36472;52.170;20.884;2023-08-12T09:19:14;5.90;;;1.73;;
21274;SDS011;36472;52.170;20.884;2023-08-12T09:21:43;4.47;;;1.65;;
21274;SDS011;36472;52.170;20.884;2023-08-12T09:24:23;5.68;;;1.67;;
21274;SDS011;36472;52.170;20.884;2023-08-12T09:26:54;5.47;;;1.90;;
21274;SDS011;36472;52.170;20.884;2023-08-12T09:29:23;5.32;;;1.63;;
21274;SDS011;36472;52.170;20.884;2023-08-12T09:32:09;4.68;;;1.52;;
21274;SDS011;36472;52.170;20.884;2023-08-12T09:34:45;3.50;;;1.42;;
21274;SDS011;36472;52.170;20.884;2023-08-12T09:37:15;7.05;;;2.08;;
21274;SDS011;36472;52.170;20.884;2023-08-12T09:39:46;2.53;;;1.70;;
21274;SDS011;36472;52.170;20.884;2023-08-12T09:42:17;2.97;;;1.70;;
21274;SDS011;36472;52.170;20.884;2023-08-12T09:44:47;4.10;;;1.70;;
21274;SDS011;36472;52.170;20.884;2023-08-12T09:47:16;4.38;;;1.70;;
21274;SDS011;36472;52.170;20.884;2023-08-12T09:49:45;3.60;;;1.60;;
21274;SDS011;36472;52.170;20.884;2023-08-12T09:52:14;5.03;;;1.83;;
21274;SDS011;36472;52.170;20.884;2023-08-12T09:54:44;3.88;;;1.70;;
21274;SDS011;36472;52.170;20.884;2023-08-12T09:57:14;3.38;;;1.50;;
21274;SDS011;36472;52.170;20.884;2023-08-12T09:59:49;2.55;;;1.48;;
21274;SDS011;36472;52.170;20.884;2023-08-12T10:02:22;3.50;;;1.80;;
21274;SDS011;36472;52.170;20.884;2023-08-12T10:04:53;2.13;;;1.63;;
21274;SDS011;36472;52.170;20.884;2023-08-12T10:07:24;3.42;;;1.80;;
21274;SDS011;36472;52.170;20.884;2023-08-12T10:09:54;4.55;;;1.75;;
21274;SDS011;36472;52.170;20.884;2023-08-12T10:12:25;5.45;;;1.70;;
21274;SDS011;36472;52.170;20.884;2023-08-12T10:14:55;5.30;;;1.95;;
21274;SDS011;36472;52.170;20.884;2023-08-12T10:17:25;3.03;;;1.50;;
21274;SDS011;36472;52.170;20.884;2023-08-12T10:20:12;5.38;;;1.90;;
21274;SDS011;36472;52.170;20.884;2023-08-12T10:22:42;3.08;;;1.70;;
21274;SDS011;36472;52.170;20.884;2023-08-12T10:25:13;4.30;;;1.98;;
21274;SDS011;36472;52.170;20.884;2023-08-12T10:27:44;4.32;;;2.20;;
21274;SDS011;36472;52.170;20.884;2023-08-12T10:30:13;2.67;;;1.60;;
21274;SDS011;36472;52.170;20.884;2023-08-12T10:32:42;5.80;;;1.98;;
21274;SDS011;36472;52.170;20.884;2023-08-12T10:35:13;5.18;;;1.73;;
21274;SDS011;36472;52.170;20.884;2023-08-12T10:37:43;3.30;;;1.60;;
21274;SDS011;36472;52.170;20.884;2023-08-12T10:40:21;4.30;;;1.80;;
21274;SDS011;36472;52.170;20.884;2023-08-12T10:42:52;2.55;;;1.70;;
21274;SDS011;36472;52.170;20.884;2023-08-12T10:45:21;4.63;;;1.75;;
21274;SDS011;36472;52.170;20.884;2023-08-12T10:47:51;4.53;;;1.90;;
21274;SDS011;36472;52.170;20.884;2023-08-12T10:50:43;3.55;;;1.55;;
21274;SDS011;36472;52.170;20.884;2023-08-12T10:53:20;2.72;;;1.55;;
21274;SDS011;36472;52.170;20.884;2023-08-12T10:55:57;3.38;;;1.77;;
21274;SDS011;36472;52.170;20.884;2023-08-12T10:58:33;3.63;;;1.90;;
21274;SDS011;36472;52.170;20.884;2023-08-12T11:01:10;6.43;;;1.63;;
21274;SDS011;36472;52.170;20.884;2023-08-12T11:03:44;3.00;;;1.65;;
21274;SDS011;36472;52.170;20.884;2023-08-12T11:06:16;3.28;;;1.52;;
21274;SDS011;36472;52.170;20.884;2023-08-12T11:08:47;4.07;;;1.92;;
21274;SDS011;36472;52.170;20.884;2023-08-12T11:11:21;3.45;;;1.42;;
21274;SDS011;36472;52.170;20.884;2023-08-12T11:13:54;2.28;;;1.25;;
21274;SDS011;36472;52.170;20.884;2023-08-12T11:16:31;4.70;;;1.75;;
21274;SDS011;36472;52.170;20.884;2023-08-12T11:19:03;4.78;;;1.63;;
21274;SDS011;36472;52.170;20.884;2023-08-12T11:21:35;3.47;;;1.55;;
21274;SDS011;36472;52.170;20.884;2023-08-12T11:24:05;3.72;;;1.60;;
21274;SDS011;36472;52.170;20.884;2023-08-12T11:26:38;2.17;;;1.60;;
21274;SDS011;36472;52.170;20.884;2023-08-12T11:29:11;3.33;;;1.52;;
21274;SDS011;36472;52.170;20.884;2023-08-12T11:31:40;3.00;;;1.63;;
21274;SDS011;36472;52.170;20.884;2023-08-12T11:34:09;3.83;;;1.70;;
21274;SDS011;36472;52.170;20.884;2023-08-12T11:36:39;5.03;;;1.60;;
21274;SDS011;36472;52.170;20.884;2023-08-12T11:39:10;2.40;;;1.48;;
21274;SDS011;36472;52.170;20.884;2023-08-12T11:41:39;4.75;;;1.88;;
21274;SDS011;36472;52.170;20.884;2023-08-12T11:44:12;3.83;;;1.65;;
21274;SDS011;36472;52.170;20.884;2023-08-12T11:46:44;2.42;;;1.67;;
21274;SDS011;36472;52.170;20.884;2023-08-12T11:49:13;2.63;;;1.75;;
21274;SDS011;36472;52.170;20.884;2023-08-12T11:51:42;5.25;;;2.75;;
21274;SDS011;36472;52.170;20.884;2023-08-12T11:54:15;3.67;;;1.52;;
21274;SDS011;36472;52.170;20.884;2023-08-12T11:56:44;3.28;;;1.80;;
21274;SDS011;36472;52.170;20.884;2023-08-12T11:59:15;4.40;;;1.40;;
21274;SDS011;36472;52.170;20.884;2023-08-12T12:01:46;6.43;;;3.72;;
21274;SDS011;36472;52.170;20.884;2023-08-12T12:04:18;2.90;;;1.73;;
21274;SDS011;36472;52.170;20.884;2023-08-12T12:06:49;3.40;;;2.13;;
21274;SDS011;36472;52.170;20.884;2023-08-12T12:09:18;4.30;;;2.30;;
21274;SDS011;36472;52.170;20.884;2023-08-12T12:11:51;2.65;;;1.73;;
21274;SDS011;36472;52.170;20.884;2023-08-12T12:14:22;3.78;;;1.80;;
21274;SDS011;36472;52.170;20.884;2023-08-12T12:16:53;4.30;;;1.83;;
21274;SDS011;36472;52.170;20.884;2023-08-12T12:19:22;2.65;;;1.42;;
21274;SDS011;36472;52.170;20.884;2023-08-12T12:21:52;3.65;;;1.70;;
21274;SDS011;36472;52.170;20.884;2023-08-12T12:24:21;3.08;;;2.08;;
21274;SDS011;36472;52.170;20.884;2023-08-12T12:26:50;3.97;;;1.90;;
21274;SDS011;36472;52.170;20.884;2023-08-12T12:29:19;3.92;;;1.92;;
21274;SDS011;36472;52.170;20.884;2023-08-12T12:31:50;4.97;;;1.65;;
21274;SDS011;36472;52.170;20.884;2023-08-12T12:34:19;2.83;;;1.65;;
21274;SDS011;36472;52.170;20.884;2023-08-12T12:36:48;3.15;;;1.77;;
21274;SDS011;36472;52.170;20.884;2023-08-12T12:39:17;5.38;;;2.03;;
21274;SDS011;36472;52.170;20.884;2023-08-12T12:41:46;2.95;;;1.80;;
21274;SDS011;36472;52.170;20.884;2023-08-12T12:44:15;4.30;;;1.52;;
21274;SDS011;36472;52.170;20.884;2023-08-12T12:46:44;4.07;;;1.65;;
21274;SDS011;36472;52.170;20.884;2023-08-12T12:49:14;4.82;;;1.60;;
21274;SDS011;36472;52.170;20.884;2023-08-12T12:51:44;2.45;;;1.50;;
21274;SDS011;36472;52.170;20.884;2023-08-12T12:54:12;4.55;;;1.77;;
21274;SDS011;36472;52.170;20.884;2023-08-12T12:56:42;3.15;;;1.65;;
21274;SDS011;36472;52.170;20.884;2023-08-12T12:59:10;3.50;;;1.80;;
21274;SDS011;36472;52.170;20.884;2023-08-12T13:01:41;2.75;;;1.65;;
21274;SDS011;36472;52.170;20.884;2023-08-12T13:04:10;4.65;;;1.77;;
21274;SDS011;36472;52.170;20.884;2023-08-12T13:06:41;3.38;;;1.63;;
21274;SDS011;36472;52.170;20.884;2023-08-12T13:09:11;2.78;;;1.40;;
21274;SDS011;36472;52.170;20.884;2023-08-12T13:11:40;3.88;;;1.65;;
21274;SDS011;36472;52.170;20.884;2023-08-12T13:14:09;3.47;;;1.58;;
21274;SDS011;36472;52.170;20.884;2023-08-12T13:16:38;4.05;;;1.73;;
21274;SDS011;36472;52.170;20.884;2023-08-12T13:19:07;1.90;;;1.45;;
21274;SDS011;36472;52.170;20.884;2023-08-12T13:21:36;2.53;;;1.60;;
21274;SDS011;36472;52.170;20.884;2023-08-12T13:24:06;3.83;;;1.88;;
21274;SDS011;36472;52.170;20.884;2023-08-12T13:26:36;3.03;;;1.60;;
21274;SDS011;36472;52.170;20.884;2023-08-12T13:29:04;4.35;;;1.83;;
21274;SDS011;36472;52.170;20.884;2023-08-12T13:31:34;2.63;;;1.60;;
21274;SDS011;36472;52.170;20.884;2023-08-12T13:34:03;3.10;;;1.67;;
21274;SDS011;36472;52.170;20.884;2023-08-12T13:36:32;3.83;;;1.80;;
21274;SDS011;36472;52.170;20.884;2023-08-12T13:39:01;2.92;;;1.88;;
21274;SDS011;36472;52.170;20.884;2023-08-12T13:41:31;3.10;;;1.58;;
21274;SDS011;36472;52.170;20.884;2023-08-12T13:44:01;4.85;;;2.10;;
21274;SDS011;36472;52.170;20.884;2023-08-12T13:46:30;5.22;;;1.95;;
21274;SDS011;36472;52.170;20.884;2023-08-12T13:48:59;3.10;;;1.40;;
21274;SDS011;36472;52.170;20.884;2023-08-12T13:51:28;2.03;;;1.52;;
21274;SDS011;36472;52.170;20.884;2023-08-12T13:53:58;2.75;;;1.70;;
21274;SDS011;36472;52.170;20.884;2023-08-12T13:56:28;2.92;;;1.88;;
21274;SDS011;36472;52.170;20.884;2023-08-12T13:58:59;3.42;;;1.80;;
21274;SDS011;36472;52.170;20.884;2023-08-12T14:01:28;2.40;;;1.75;;
21274;SDS011;36472;52.170;20.884;2023-08-12T14:03:57;3.35;;;1.55;;
21274;SDS011;36472;52.170;20.884;2023-08-12T14:06:26;3.53;;;1.70;;
21274;SDS011;36472;52.170;20.884;2023-08-12T14:08:55;3.90;;;1.70;;
21274;SDS011;36472;52.170;20.884;2023-08-12T14:11:24;4.15;;;1.80;;
21274;SDS011;36472;52.170;20.884;2023-08-12T14:13:53;3.45;;;1.70;;
21274;SDS011;36472;52.170;20.884;2023-08-12T14:16:27;4.40;;;1.70;;
21274;SDS011;36472;52.170;20.884;2023-08-12T14:18:56;2.25;;;1.55;;
21274;SDS011;36472;52.170;20.884;2023-08-12T14:21:25;2.78;;;1.85;;
21274;SDS011;36472;52.170;20.884;2023-08-12T14:23:53;3.80;;;1.90;;
21274;SDS011;36472;52.170;20.884;2023-08-12T14:26:23;3.92;;;1.40;;
21274;SDS011;36472;52.170;20.884;2023-08-12T14:28:51;2.83;;;1.75;;
21274;SDS011;36472;52.170;20.884;2023-08-12T14:31:21;4.03;;;1.73;;
21274;SDS011;36472;52.170;20.884;2023-08-12T14:33:51;2.38;;;1.75;;
21274;SDS011;36472;52.170;20.884;2023-08-12T14:36:20;4.88;;;1.88;;
21274;SDS011;36472;52.170;20.884;2023-08-12T14:38:49;4.72;;;1.95;;
21274;SDS011;36472;52.170;20.884;2023-08-12T14:41:19;2.40;;;1.58;;
21274;SDS011;36472;52.170;20.884;2023-08-12T14:43:48;3.20;;;1.40;;
21274;SDS011;36472;52.170;20.884;2023-08-12T14:46:17;2.45;;;1.60;;
21274;SDS011;36472;52.170;20.884;2023-08-12T14:48:46;2.38;;;1.60;;
21274;SDS011;36472;52.170;20.884;2023-08-12T14:51:16;2.30;;;1.65;;
21274;SDS011;36472;52.170;20.884;2023-08-12T14:53:45;2.90;;;1.50;;